createdAt,value
2022-09-28T00:01:54.334Z,99186.41
2022-09-28T00:03:56.549Z,99184.13
2022-09-28T00:06:01.784Z,99185.88
2022-09-28T00:08:03.212Z,99187.41
2022-09-28T00:10:04.815Z,99191.53
2022-09-28T00:12:06.306Z,99184.97
2022-09-28T00:14:09.626Z,99187.97
2022-09-28T00:16:14.246Z,99177.00
2022-09-28T00:18:15.748Z,99193.00
2022-09-28T00:20:17.046Z,99187.00
2022-09-28T00:22:18.491Z,99190.91
2022-09-28T00:24:22.970Z,99185.25
2022-09-28T00:26:27.279Z,99178.94
2022-09-28T00:28:28.813Z,99181.09
2022-09-28T00:30:31.610Z,99181.63
2022-09-28T00:32:33.085Z,99182.09
2022-09-28T00:34:35.821Z,99185.44
2022-09-28T00:36:37.284Z,99183.47
2022-09-28T00:38:38.598Z,99181.66
2022-09-28T00:40:40.138Z,99176.91
2022-09-28T00:42:41.736Z,99168.75
2022-09-28T00:44:49.921Z,99165.75
2022-09-28T00:46:57.238Z,99167.28
2022-09-28T00:49:03.104Z,99155.69
2022-09-28T00:51:08.831Z,99169.63
2022-09-28T00:53:15.987Z,99170.47
2022-09-28T00:55:20.469Z,99166.03
2022-09-28T00:57:22.914Z,99169.72
2022-09-28T00:59:24.412Z,99167.16
2022-09-28T01:01:26.315Z,99173.28
2022-09-28T01:03:29.733Z,99171.75
2022-09-28T01:05:33.046Z,99173.50
2022-09-28T01:07:35.451Z,99166.50
2022-09-28T01:09:38.660Z,99164.31
2022-09-28T01:11:42.101Z,99167.22
2022-09-28T01:13:44.493Z,99172.50
2022-09-28T01:15:52.300Z,99168.66
2022-09-28T01:18:00.849Z,99152.25
2022-09-28T01:20:24.377Z,99168.75
2022-09-28T01:22:36.143Z,99158.19
2022-09-28T01:24:42.767Z,99155.75
2022-09-28T01:26:57.873Z,99159.38
2022-09-28T01:29:04.753Z,99159.31
2022-09-28T01:31:10.844Z,99154.16
2022-09-28T01:33:19.950Z,99149.69
2022-09-28T01:35:26.900Z,99149.84
2022-09-28T01:37:35.425Z,99153.72
2022-09-28T01:39:42.229Z,99150.53
2022-09-28T01:41:48.699Z,99143.16
2022-09-28T01:43:54.950Z,99137.31
2022-09-28T01:46:00.740Z,99125.78
2022-09-28T01:48:06.183Z,99139.56
2022-09-28T01:50:11.923Z,99136.66
2022-09-28T01:52:18.869Z,99126.31
2022-09-28T01:54:26.840Z,99140.50
2022-09-28T01:56:33.928Z,99138.69
2022-09-28T01:58:38.463Z,99142.19
2022-09-28T02:00:45.182Z,99138.47
2022-09-28T02:02:50.596Z,99136.59
2022-09-28T02:04:58.369Z,99138.91
2022-09-28T02:07:05.041Z,99140.34
2022-09-28T02:09:11.496Z,99132.81
2022-09-28T02:11:14.960Z,99129.88
2022-09-28T02:13:19.483Z,99136.88
2022-09-28T02:15:30.121Z,99131.69
2022-09-28T02:17:32.928Z,99134.00
2022-09-28T02:19:35.642Z,99129.25
2022-09-28T02:21:42.372Z,99130.09
2022-09-28T02:23:51.193Z,99125.09
2022-09-28T02:26:00.790Z,99127.13
2022-09-28T02:28:04.955Z,99123.50
2022-09-28T02:30:08.146Z,99124.00
2022-09-28T02:32:10.928Z,99126.66
2022-09-28T02:34:13.719Z,99128.69
2022-09-28T02:36:15.455Z,99127.28
2022-09-28T02:38:17.329Z,99127.28
2022-09-28T02:40:21.530Z,99123.00
2022-09-28T02:42:27.428Z,99123.16
2022-09-28T02:44:49.398Z,99126.53
2022-09-28T02:46:58.131Z,99118.34
2022-09-28T02:49:22.091Z,99119.31
2022-09-28T02:51:32.267Z,99121.00
2022-09-28T02:54:14.413Z,99121.00
2022-09-28T02:56:42.809Z,99122.59
2022-09-28T02:58:50.825Z,99121.28
2022-09-28T03:01:01.220Z,99115.19
2022-09-28T03:03:11.863Z,99116.78
2022-09-28T03:05:18.128Z,99109.94
2022-09-28T03:07:26.060Z,99106.94
2022-09-28T03:09:35.151Z,99109.31
2022-09-28T03:11:40.686Z,99107.88
2022-09-28T03:13:42.493Z,99105.47
2022-09-28T03:15:48.401Z,99102.75
2022-09-28T03:17:50.489Z,99101.06
2022-09-28T03:19:51.920Z,99097.66
2022-09-28T03:21:53.388Z,99097.56
2022-09-28T03:23:56.010Z,99092.53
2022-09-28T03:25:57.577Z,99086.53
2022-09-28T03:27:58.875Z,99091.00
2022-09-28T03:30:00.658Z,99088.84
2022-09-28T03:32:02.209Z,99088.25
2022-09-28T03:34:03.636Z,99094.31
2022-09-28T03:36:05.344Z,99095.34
2022-09-28T03:38:06.782Z,99089.31
2022-09-28T03:40:10.282Z,99083.25
2022-09-28T03:42:11.760Z,99085.69
2022-09-28T03:44:13.049Z,99085.38
2022-09-28T03:46:14.609Z,99083.63
2022-09-28T03:48:17.820Z,99087.00
2022-09-28T03:50:22.107Z,99084.91
2022-09-28T03:52:23.400Z,99077.06
2022-09-28T03:54:24.853Z,99082.06
2022-09-28T03:56:27.480Z,99076.75
2022-09-28T03:58:29.083Z,99074.03
2022-09-28T04:00:30.513Z,99077.75
2022-09-28T04:02:33.378Z,99072.88
2022-09-28T04:04:35.019Z,99072.44
2022-09-28T04:06:36.460Z,99071.59
2022-09-28T04:08:37.891Z,99073.81
2022-09-28T04:10:39.201Z,99068.44
2022-09-28T04:12:41.998Z,99061.66
2022-09-28T04:14:43.421Z,99063.75
2022-09-28T04:16:44.940Z,99072.03
2022-09-28T04:18:46.248Z,99065.44
2022-09-28T04:20:47.690Z,99069.47
2022-09-28T04:22:49.388Z,99064.38
2022-09-28T04:24:50.810Z,99071.81
2022-09-28T04:26:52.327Z,99058.63
2022-09-28T04:28:54.965Z,99066.25
2022-09-28T04:30:56.463Z,99061.38
2022-09-28T04:32:57.748Z,99065.19
2022-09-28T04:34:59.242Z,99067.41
2022-09-28T04:37:00.780Z,99068.38
2022-09-28T04:39:02.268Z,99066.50
2022-09-28T04:41:03.672Z,99065.31
2022-09-28T04:43:05.188Z,99059.06
2022-09-28T04:45:09.022Z,99056.41
2022-09-28T04:47:10.499Z,99062.34
2022-09-28T04:49:11.883Z,99061.25
2022-09-28T04:51:13.361Z,99060.84
2022-09-28T04:53:14.660Z,99064.84
2022-09-28T04:55:16.292Z,99072.75
2022-09-28T04:57:17.733Z,99075.69
2022-09-28T04:59:19.036Z,99076.66
2022-09-28T05:01:22.097Z,99076.38
2022-09-28T05:03:23.726Z,99074.78
2022-09-28T05:05:25.467Z,99081.28
2022-09-28T05:07:26.901Z,99070.91
2022-09-28T05:09:28.376Z,99073.28
2022-09-28T05:11:29.701Z,99073.88
2022-09-28T05:13:31.974Z,99072.19
2022-09-28T05:15:34.321Z,99071.25
2022-09-28T05:17:37.262Z,99072.88
2022-09-28T05:19:38.730Z,99069.78
2022-09-28T05:21:40.028Z,99076.78
2022-09-28T05:23:46.131Z,99070.31
2022-09-28T05:25:47.615Z,99071.19
2022-09-28T05:27:48.988Z,99077.72
2022-09-28T05:29:50.461Z,99087.06
2022-09-28T05:31:51.766Z,99081.19
2022-09-28T05:33:54.597Z,99080.16
2022-09-28T05:36:00.929Z,99077.97
2022-09-28T05:38:04.658Z,99073.41
2022-09-28T05:40:07.292Z,99072.56
2022-09-28T05:42:08.808Z,99076.34
2022-09-28T05:44:10.264Z,99068.56
2022-09-28T05:46:11.865Z,99071.19
2022-09-28T05:48:13.442Z,99068.03
2022-09-28T05:50:16.219Z,99073.81
2022-09-28T05:52:17.924Z,99062.72
2022-09-28T05:54:19.544Z,99063.28
2022-09-28T05:56:21.180Z,99054.75
2022-09-28T05:58:22.445Z,99055.63
2022-09-28T06:00:23.952Z,99052.31
2022-09-28T06:02:25.405Z,99057.16
2022-09-28T06:04:26.977Z,99057.47
2022-09-28T06:06:29.820Z,99047.28
2022-09-28T06:08:31.942Z,99039.66
2022-09-28T06:10:33.710Z,99033.59
2022-09-28T06:12:35.170Z,99048.41
2022-09-28T06:14:36.591Z,99040.38
2022-09-28T06:16:41.696Z,99051.34
2022-09-28T06:18:45.197Z,99031.69
2022-09-28T06:20:46.694Z,99035.53
2022-09-28T06:22:51.631Z,99035.28
2022-09-28T06:24:53.317Z,99038.94
2022-09-28T06:26:54.859Z,99037.47
2022-09-28T06:28:56.318Z,99044.97
2022-09-28T06:30:59.548Z,99037.00
2022-09-28T06:33:02.064Z,99026.72
2022-09-28T06:35:03.995Z,99029.03
2022-09-28T06:37:05.454Z,99020.44
2022-09-28T06:39:08.103Z,99025.63
2022-09-28T06:41:10.751Z,99021.28
2022-09-28T06:43:14.004Z,99026.59
2022-09-28T06:45:15.479Z,99025.38
2022-09-28T06:47:16.772Z,99015.84
2022-09-28T06:49:19.641Z,99027.31
2022-09-28T06:51:21.215Z,99023.09
2022-09-28T06:53:22.511Z,99025.16
2022-09-28T06:55:26.475Z,99022.38
2022-09-28T06:57:28.059Z,99019.81
2022-09-28T06:59:29.596Z,99022.50
2022-09-28T07:01:31.067Z,99011.63
2022-09-28T07:03:32.567Z,99022.28
2022-09-28T07:05:36.080Z,99016.69
2022-09-28T07:07:37.683Z,99018.84
2022-09-28T07:09:43.748Z,99022.00
2022-09-28T07:11:49.381Z,99020.81
2022-09-28T07:13:51.612Z,99024.56
2022-09-28T07:15:56.862Z,99021.06
2022-09-28T07:18:02.614Z,99019.84
2022-09-28T07:20:15.448Z,99026.84
2022-09-28T07:22:26.505Z,99022.31
2022-09-28T07:24:32.262Z,99016.56
2022-09-28T07:26:33.620Z,99017.53
2022-09-28T07:28:36.404Z,99024.22
2022-09-28T07:30:38.220Z,99019.28
2022-09-28T07:32:39.740Z,99028.41
2022-09-28T07:34:41.050Z,99023.63
2022-09-28T07:36:42.529Z,99015.47
2022-09-28T07:38:43.844Z,99035.56
2022-09-28T07:40:48.369Z,99035.22
2022-09-28T07:42:50.502Z,99035.16
2022-09-28T07:44:53.487Z,99027.56
2022-09-28T07:46:54.954Z,99027.88
2022-09-28T07:48:56.240Z,99039.00
2022-09-28T07:50:57.735Z,99038.44
2022-09-28T07:52:59.025Z,99032.66
2022-09-28T07:55:06.026Z,99035.16
2022-09-28T07:57:08.498Z,99027.16
2022-09-28T07:59:10.198Z,99023.44
2022-09-28T08:01:13.513Z,99026.13
2022-09-28T08:03:15.687Z,99029.09
2022-09-28T08:05:17.184Z,99026.28
2022-09-28T08:07:21.665Z,99029.97
2022-09-28T08:09:25.389Z,99031.13
2022-09-28T08:11:26.878Z,99023.94
2022-09-28T08:13:28.171Z,99032.00
2022-09-28T08:15:31.989Z,99031.25
2022-09-28T08:17:34.778Z,99026.19
2022-09-28T08:19:36.240Z,99033.63
2022-09-28T08:21:37.545Z,99033.81
2022-09-28T08:23:38.986Z,99040.06
2022-09-28T08:25:40.352Z,99043.06
2022-09-28T08:27:41.819Z,99038.72
2022-09-28T08:29:43.168Z,99040.41
2022-09-28T08:31:47.476Z,99036.75
2022-09-28T08:33:50.281Z,99037.59
2022-09-28T08:35:55.870Z,99039.94
2022-09-28T08:37:57.302Z,99038.03
2022-09-28T08:39:58.620Z,99048.72
2022-09-28T08:42:15.038Z,99041.41
2022-09-28T08:44:18.314Z,99035.22
2022-09-28T08:46:26.960Z,99045.03
2022-09-28T08:48:33.081Z,99041.66
2022-09-28T08:50:45.628Z,99041.91
2022-09-28T08:52:51.346Z,99037.19
2022-09-28T08:54:58.659Z,99042.81
2022-09-28T08:57:03.542Z,99040.22
2022-09-28T08:59:11.936Z,99036.56
2022-09-28T09:01:17.784Z,99039.16
2022-09-28T09:03:21.988Z,99026.59
2022-09-28T09:05:39.414Z,99036.59
2022-09-28T09:08:05.198Z,99044.09
2022-09-28T09:10:19.717Z,99043.41
2022-09-28T09:12:30.461Z,99040.72
2022-09-28T09:14:52.070Z,99039.06
2022-09-28T09:17:01.277Z,99041.25
2022-09-28T09:19:13.902Z,99036.72
2022-09-28T09:21:24.466Z,99034.16
2022-09-28T09:23:36.443Z,99025.44
2022-09-28T09:25:41.542Z,99033.53
2022-09-28T09:28:03.539Z,99024.31
2022-09-28T09:30:08.642Z,99031.28
2022-09-28T09:32:25.800Z,99026.84
2022-09-28T09:34:52.125Z,99034.25
2022-09-28T09:37:06.260Z,99027.97
2022-09-28T09:39:20.820Z,99032.81
2022-09-28T09:41:34.320Z,99033.84
2022-09-28T09:43:58.778Z,99025.78
2022-09-28T09:46:10.353Z,99028.78
2022-09-28T09:48:17.364Z,99030.53
2022-09-28T09:50:24.715Z,99027.75
2022-09-28T09:52:29.609Z,99036.91
2022-09-28T09:54:37.778Z,99035.69
2022-09-28T09:56:42.583Z,99035.94
2022-09-28T09:58:48.852Z,99037.59
2022-09-28T10:00:54.143Z,99032.00
2022-09-28T10:02:57.619Z,99041.97
2022-09-28T10:05:02.705Z,99041.69
2022-09-28T10:07:06.748Z,99036.50
2022-09-28T10:09:13.620Z,99036.66
2022-09-28T10:11:20.163Z,99036.78
2022-09-28T10:13:21.629Z,99034.81
2022-09-28T10:15:25.496Z,99039.91
2022-09-28T10:17:27.159Z,99040.16
2022-09-28T10:19:31.633Z,99042.13
2022-09-28T10:21:33.224Z,99046.34
2022-09-28T10:23:37.712Z,99047.34
2022-09-28T10:25:39.297Z,99054.50
2022-09-28T10:27:44.532Z,99046.91
2022-09-28T10:29:52.241Z,99048.88
2022-09-28T10:31:53.952Z,99048.59
2022-09-28T10:33:57.654Z,99053.94
2022-09-28T10:36:01.590Z,99054.50
2022-09-28T10:38:06.695Z,99055.44
2022-09-28T10:40:27.033Z,99046.88
2022-09-28T10:42:31.273Z,99048.09
2022-09-28T10:44:42.649Z,99052.44
2022-09-28T10:46:44.724Z,99054.00
2022-09-28T10:48:50.565Z,99058.19
2022-09-28T10:51:00.494Z,99054.84
2022-09-28T10:53:20.177Z,99059.91
2022-09-28T10:55:30.173Z,99054.97
2022-09-28T10:57:35.419Z,99065.31
2022-09-28T10:59:40.563Z,99056.28
2022-09-28T11:01:42.303Z,99061.31
2022-09-28T11:03:55.154Z,99056.31
2022-09-28T11:05:59.492Z,99051.47
2022-09-28T11:08:06.461Z,99061.59
2022-09-28T11:10:21.599Z,99059.91
2022-09-28T11:12:25.937Z,99061.38
2022-09-28T11:14:32.690Z,99056.97
2022-09-28T11:16:36.036Z,99051.63
2022-09-28T11:18:37.647Z,99055.53
2022-09-28T11:20:41.855Z,99053.84
2022-09-28T11:22:44.268Z,99061.53
2022-09-28T11:24:45.585Z,99054.13
2022-09-28T11:26:50.034Z,99058.19
2022-09-28T11:28:52.852Z,99066.22
2022-09-28T11:30:54.823Z,99056.50
2022-09-28T11:33:03.542Z,99053.66
2022-09-28T11:35:05.972Z,99047.25
2022-09-28T11:37:28.301Z,99058.31
2022-09-28T11:39:40.815Z,99046.72
2022-09-28T11:41:54.180Z,99054.78
2022-09-28T11:44:12.433Z,99052.69
2022-09-28T11:46:22.927Z,99052.53
2022-09-28T11:48:33.312Z,99051.31
2022-09-28T11:50:45.098Z,99054.19
2022-09-28T11:52:52.887Z,99057.50
2022-09-28T11:54:57.114Z,99058.56
2022-09-28T11:57:01.300Z,99065.50
2022-09-28T11:59:09.396Z,99058.38
2022-09-28T12:01:21.497Z,99052.13
2022-09-28T12:03:30.218Z,99064.50
2022-09-28T12:05:36.781Z,99064.22
2022-09-28T12:07:43.969Z,99067.81
2022-09-28T12:09:49.562Z,99069.75
2022-09-28T12:11:56.360Z,99066.06
2022-09-28T12:14:01.321Z,99070.03
2022-09-28T12:16:27.721Z,99068.59
2022-09-28T12:18:38.579Z,99048.88
2022-09-28T12:20:45.893Z,99065.53
2022-09-28T12:23:02.119Z,99067.34
2022-09-28T12:25:10.103Z,99064.59
2022-09-28T12:27:16.394Z,99058.88
2022-09-28T12:29:22.600Z,99063.94
2022-09-28T12:31:29.655Z,99066.66
2022-09-28T12:33:32.559Z,99061.06
2022-09-28T12:35:48.317Z,99059.72
2022-09-28T12:38:03.034Z,99055.34
2022-09-28T12:40:31.689Z,99059.97
2022-09-28T12:42:50.476Z,99058.63
2022-09-28T12:45:11.177Z,99061.28
2022-09-28T12:47:33.677Z,99059.47
2022-09-28T12:52:33.093Z,99064.59
2022-09-28T12:54:50.472Z,99064.81
2022-09-28T12:57:02.299Z,99063.19
2022-09-28T12:59:14.896Z,99061.28
2022-09-28T13:01:36.951Z,99066.47
2022-09-28T13:04:02.612Z,99067.25
2022-09-28T13:06:20.242Z,99071.72
2022-09-28T13:08:30.667Z,99069.59
2022-09-28T13:10:40.349Z,99070.09
2022-09-28T13:12:54.148Z,99071.13
2022-09-28T13:15:27.339Z,99067.88
2022-09-28T13:17:36.816Z,99071.50
2022-09-28T13:19:45.879Z,99071.94
2022-09-28T13:22:00.105Z,99071.16
2022-09-28T13:24:20.612Z,99070.41
2022-09-28T13:26:29.669Z,99065.06
2022-09-28T13:28:32.339Z,99061.88
2022-09-28T13:30:38.909Z,99072.69
2022-09-28T13:32:41.966Z,99070.91
2022-09-28T13:34:48.515Z,99066.78
2022-09-28T13:37:21.004Z,99065.75
2022-09-28T13:39:47.682Z,99069.88
2022-09-28T13:41:49.210Z,99075.63
2022-09-28T13:44:10.117Z,99070.72
2022-09-28T13:46:21.537Z,99073.13
2022-09-28T13:48:34.330Z,99067.19
2022-09-28T13:50:48.205Z,99073.78
2022-09-28T13:53:00.682Z,99074.66
2022-09-28T13:55:30.851Z,99074.13
2022-09-28T13:57:41.437Z,99074.94
2022-09-28T13:59:59.149Z,99075.03
2022-09-28T14:02:07.167Z,99072.88
2022-09-28T14:04:16.213Z,99079.94
2022-09-28T14:06:26.605Z,99079.03
2022-09-28T14:08:33.214Z,99084.28
2022-09-28T14:10:47.582Z,99082.31
2022-09-28T14:12:49.890Z,99083.81
2022-09-28T14:14:52.065Z,99070.13
2022-09-28T14:17:22.473Z,99088.34
2022-09-28T14:19:28.252Z,99089.03
2022-09-28T14:21:54.720Z,99091.66
2022-09-28T14:24:12.479Z,99091.53
2022-09-28T14:26:48.142Z,99098.69
2022-09-28T14:29:09.265Z,99095.66
2022-09-28T14:31:20.897Z,99100.09
2022-09-28T14:33:26.440Z,99099.66
2022-09-28T14:35:31.780Z,99103.56
2022-09-28T14:37:37.130Z,99107.41
2022-09-28T14:39:44.906Z,99115.53
2022-09-28T14:41:46.312Z,99114.59
2022-09-28T14:44:05.109Z,99112.66
2022-09-28T14:46:33.248Z,99107.47
2022-09-28T14:48:46.881Z,99117.97
2022-09-28T14:50:48.558Z,99116.41
2022-09-28T14:52:52.767Z,99117.44
2022-09-28T14:54:57.341Z,99120.88
2022-09-28T14:57:11.745Z,99115.47
2022-09-28T14:59:18.266Z,99124.00
2022-09-28T15:01:22.017Z,99115.78
2022-09-28T15:03:24.691Z,99125.34
2022-09-28T15:05:29.872Z,99126.97
2022-09-28T15:07:44.368Z,99125.28
2022-09-28T15:09:48.238Z,99121.84
2022-09-28T15:11:51.040Z,99129.31
2022-09-28T15:14:06.042Z,99123.41
2022-09-28T15:16:11.035Z,99122.94
2022-09-28T15:18:36.508Z,99130.59
2022-09-28T15:20:40.667Z,99140.63
2022-09-28T15:22:45.321Z,99136.47
2022-09-28T15:24:58.687Z,99134.41
2022-09-28T15:27:14.957Z,99139.44
2022-09-28T15:29:18.379Z,99134.91
2022-09-28T15:31:21.901Z,99129.50
2022-09-28T15:33:24.862Z,99140.34
2022-09-28T15:35:27.651Z,99135.81
2022-09-28T15:37:37.327Z,99145.88
2022-09-28T15:39:41.462Z,99136.00
2022-09-28T15:41:45.116Z,99135.56
2022-09-28T15:44:05.246Z,99137.28
2022-09-28T15:46:12.364Z,99136.41
2022-09-28T15:48:26.108Z,99130.59
2022-09-28T15:50:29.493Z,99146.09
2022-09-28T15:52:36.183Z,99147.56
2022-09-28T15:54:43.684Z,99147.94
2022-09-28T15:56:53.170Z,99141.94
2022-09-28T15:59:24.248Z,99151.59
2022-09-28T16:01:34.764Z,99159.41
2022-09-28T16:03:36.510Z,99154.06
2022-09-28T16:05:42.271Z,99157.88
2022-09-28T16:07:56.044Z,99163.78
2022-09-28T16:10:05.196Z,99161.84
2022-09-28T16:12:09.949Z,99164.78
2022-09-28T16:14:19.160Z,99174.78
2022-09-28T16:16:26.100Z,99171.91
2022-09-28T16:18:29.155Z,99167.66
2022-09-28T16:20:33.245Z,99163.69
2022-09-28T16:22:34.796Z,99170.47
2022-09-28T16:24:38.747Z,99164.38
2022-09-28T16:26:40.385Z,99175.28
2022-09-28T16:28:54.794Z,99172.91
2022-09-28T16:31:02.150Z,99181.19
2022-09-28T16:33:05.523Z,99174.41
2022-09-28T16:35:19.967Z,99185.06
2022-09-28T16:37:30.691Z,99181.94
2022-09-28T16:39:32.109Z,99187.34
2022-09-28T16:41:33.403Z,99191.59
2022-09-28T16:43:35.111Z,99186.78
2022-09-28T16:45:37.839Z,99184.72
2022-09-28T16:47:40.677Z,99191.13
2022-09-28T16:49:42.178Z,99186.63
2022-09-28T16:51:43.594Z,99199.09
2022-09-28T16:53:45.907Z,99206.16
2022-09-28T16:55:49.020Z,99207.34
2022-09-28T16:57:51.135Z,99205.19
2022-09-28T16:59:52.892Z,99206.88
2022-09-28T17:01:54.423Z,99207.00
2022-09-28T17:03:57.333Z,99209.31
2022-09-28T17:05:58.816Z,99207.38
2022-09-28T17:08:01.349Z,99204.34
2022-09-28T17:10:03.102Z,99215.59
2022-09-28T17:12:12.251Z,99212.94
2022-09-28T17:14:13.727Z,99219.34
2022-09-28T17:16:16.484Z,99227.81
2022-09-28T17:18:18.907Z,99220.69
2022-09-28T17:20:25.126Z,99225.53
2022-09-28T17:22:26.601Z,99225.16
2022-09-28T17:24:27.918Z,99228.91
2022-09-28T17:26:29.924Z,99222.84
2022-09-28T17:28:32.880Z,99230.59
2022-09-28T17:30:34.391Z,99231.31
2022-09-28T17:32:35.877Z,99236.28
2022-09-28T17:34:37.172Z,99234.84
2022-09-28T17:36:41.270Z,99242.34
2022-09-28T17:38:43.670Z,99239.06
2022-09-28T17:40:45.275Z,99239.78
2022-09-28T17:42:47.431Z,99247.28
2022-09-28T17:44:48.856Z,99245.34
2022-09-28T17:46:50.158Z,99249.47
2022-09-28T17:48:51.945Z,99247.41
2022-09-28T17:50:53.441Z,99240.63
2022-09-28T17:52:56.654Z,99242.81
2022-09-28T17:54:58.844Z,99243.53
2022-09-28T17:57:01.513Z,99242.47
2022-09-28T17:59:05.621Z,99244.75
2022-09-28T18:01:10.521Z,99247.44
2022-09-28T18:03:19.374Z,99248.75
2022-09-28T18:05:35.213Z,99238.97
2022-09-28T18:07:37.522Z,99245.38
2022-09-28T18:09:48.247Z,99259.16
2022-09-28T18:11:51.894Z,99253.34
2022-09-28T18:13:53.609Z,99258.56
2022-09-28T18:15:58.719Z,99261.34
2022-09-28T18:18:01.326Z,99257.09
2022-09-28T18:20:03.301Z,99262.31
2022-09-28T18:22:04.732Z,99265.09
2022-09-28T18:24:06.040Z,99263.28
2022-09-28T18:26:13.131Z,99266.66
2022-09-28T18:28:14.855Z,99268.84
2022-09-28T18:30:16.445Z,99284.91
2022-09-28T18:32:29.172Z,99280.09
2022-09-28T18:34:30.756Z,99279.72
2022-09-28T18:36:39.561Z,99285.28
2022-09-28T18:39:06.568Z,99286.50
2022-09-28T18:41:13.574Z,99279.84
2022-09-28T18:43:22.709Z,99287.09
2022-09-28T18:45:30.179Z,99289.41
2022-09-28T18:47:36.138Z,99295.44
2022-09-28T18:49:42.511Z,99279.94
2022-09-28T18:51:48.565Z,99288.63
2022-09-28T18:53:55.410Z,99300.97
2022-09-28T18:56:06.097Z,99292.09
2022-09-28T18:58:13.154Z,99292.44
2022-09-28T19:00:16.282Z,99302.00
2022-09-28T19:02:17.898Z,99308.53
2022-09-28T19:04:19.560Z,99306.94
2022-09-28T19:06:21.302Z,99306.19
2022-09-28T19:08:27.437Z,99306.94
2022-09-28T19:10:29.219Z,99311.41
2022-09-28T19:12:30.683Z,99306.63
2022-09-28T19:14:31.964Z,99310.59
2022-09-28T19:16:34.889Z,99311.44
2022-09-28T19:18:36.785Z,99315.06
2022-09-28T19:20:38.233Z,99314.72
2022-09-28T19:22:39.538Z,99314.09
2022-09-28T19:24:41.223Z,99308.44
2022-09-28T19:26:43.360Z,99306.00
2022-09-28T19:28:44.854Z,99309.63
2022-09-28T19:30:54.695Z,99314.09
2022-09-28T19:32:57.567Z,99318.06
2022-09-28T19:34:59.054Z,99319.50
2022-09-28T19:37:00.334Z,99318.66
2022-09-28T19:39:01.877Z,99316.09
2022-09-28T19:41:08.424Z,99319.72
2022-09-28T19:43:09.866Z,99318.13
2022-09-28T19:45:11.158Z,99325.88
2022-09-28T19:47:12.617Z,99323.69
2022-09-28T19:49:16.261Z,99323.56
2022-09-28T19:51:17.704Z,99322.94
2022-09-28T19:53:19.169Z,99327.03
2022-09-28T19:55:20.477Z,99327.03
2022-09-28T19:57:23.102Z,99321.47
2022-09-28T19:59:24.660Z,99332.16
2022-09-28T20:01:26.427Z,99323.34
2022-09-28T20:03:27.862Z,99335.44
2022-09-28T20:05:30.537Z,99338.31
2022-09-28T20:07:31.976Z,99338.22
2022-09-28T20:09:33.408Z,99337.25
2022-09-28T20:11:34.768Z,99336.50
2022-09-28T20:13:37.058Z,99344.81
2022-09-28T20:15:38.516Z,99337.69
2022-09-28T20:17:39.993Z,99333.69
2022-09-28T20:19:41.453Z,99362.59
2022-09-28T20:21:44.098Z,99359.41
2022-09-28T20:23:46.739Z,99353.66
2022-09-28T20:25:52.176Z,99365.53
2022-09-28T20:27:54.313Z,99361.94
2022-09-28T20:29:55.820Z,99357.03
2022-09-28T20:31:57.189Z,99373.72
2022-09-28T20:33:58.640Z,99361.75
2022-09-28T20:36:04.594Z,99370.06
2022-09-28T20:38:07.436Z,99370.50
2022-09-28T20:40:09.988Z,99369.84
2022-09-28T20:42:11.586Z,99369.63
2022-09-28T20:44:13.110Z,99371.53
2022-09-28T20:46:14.569Z,99373.03
2022-09-28T20:48:16.074Z,99371.44
2022-09-28T20:50:17.353Z,99370.69
2022-09-28T20:52:18.921Z,99375.16
2022-09-28T20:54:21.778Z,99379.94
2022-09-28T20:56:25.189Z,99379.00
2022-09-28T20:58:26.683Z,99382.28
2022-09-28T21:00:28.060Z,99379.00
2022-09-28T21:02:29.616Z,99383.25
2022-09-28T21:04:31.057Z,99379.31
2022-09-28T21:06:34.434Z,99389.41
2022-09-28T21:08:35.874Z,99389.19
2022-09-28T21:10:43.225Z,99389.41
2022-09-28T21:12:46.229Z,99394.63
2022-09-28T21:14:47.665Z,99392.72
2022-09-28T21:16:49.401Z,99381.97
2022-09-28T21:18:50.902Z,99392.81
2022-09-28T21:20:52.185Z,99396.44
2022-09-28T21:22:53.632Z,99394.50
2022-09-28T21:24:55.108Z,99396.44
2022-09-28T21:26:57.921Z,99401.72
2022-09-28T21:29:00.803Z,99403.88
2022-09-28T21:31:04.735Z,99396.75
2022-09-28T21:33:06.232Z,99404.72
2022-09-28T21:35:10.732Z,99403.00
2022-09-28T21:37:12.504Z,99409.91
2022-09-28T21:39:14.128Z,99407.59
2022-09-28T21:41:15.701Z,99408.31
2022-09-28T21:43:18.784Z,99411.09
2022-09-28T21:45:20.268Z,99417.56
2022-09-28T21:47:21.687Z,99423.53
2022-09-28T21:49:23.217Z,99420.00
2022-09-28T21:51:24.605Z,99423.19
2022-09-28T21:53:27.700Z,99423.63
2022-09-28T21:55:29.351Z,99425.31
2022-09-28T21:57:30.788Z,99428.50
2022-09-28T21:59:33.603Z,99430.22
2022-09-28T22:01:35.235Z,99432.44
2022-09-28T22:03:37.075Z,99429.34
2022-09-28T22:05:38.527Z,99431.47
2022-09-28T22:07:40.275Z,99426.59
2022-09-28T22:09:41.772Z,99431.81
2022-09-28T22:11:43.066Z,99432.75
2022-09-28T22:13:46.073Z,99424.03
2022-09-28T22:15:53.601Z,99430.22
2022-09-28T22:17:55.071Z,99426.16
2022-09-28T22:19:56.824Z,99428.72
2022-09-28T22:21:58.428Z,99430.44
2022-09-28T22:24:01.360Z,99430.44
2022-09-28T22:26:06.410Z,99429.34
2022-09-28T22:28:08.428Z,99434.13
2022-09-28T22:30:10.679Z,99435.41
2022-09-28T22:32:13.693Z,99433.59
2022-09-28T22:34:15.228Z,99443.81
2022-09-28T22:36:17.014Z,99435.31
2022-09-28T22:38:18.666Z,99440.38
2022-09-28T22:40:20.152Z,99440.06
2022-09-28T22:42:21.521Z,99430.41
2022-09-28T22:44:23.232Z,99427.13
2022-09-28T22:46:26.663Z,99428.91
2022-09-28T22:48:29.941Z,99441.25
2022-09-28T22:50:31.419Z,99439.75
2022-09-28T22:52:32.904Z,99447.13
2022-09-28T22:54:34.202Z,99441.44
2022-09-28T22:56:35.661Z,99449.50
2022-09-28T22:58:38.168Z,99445.81
2022-09-28T23:00:39.600Z,99452.06
2022-09-28T23:02:41.120Z,99448.00
2022-09-28T23:04:43.971Z,99446.94
2022-09-28T23:06:45.439Z,99445.66
2022-09-28T23:08:47.659Z,99436.38
2022-09-28T23:10:49.329Z,99451.56
2022-09-28T23:12:53.048Z,99441.16
2022-09-28T23:14:54.534Z,99446.03
2022-09-28T23:16:55.821Z,99439.13
2022-09-28T23:18:57.740Z,99454.28
2022-09-28T23:21:02.143Z,99440.47
2022-09-28T23:23:03.608Z,99453.41
2022-09-28T23:25:05.975Z,99446.19
2022-09-28T23:27:07.507Z,99446.19
2022-09-28T23:29:10.465Z,99447.34
2022-09-28T23:31:14.724Z,99450.94
2022-09-28T23:33:17.461Z,99438.09
2022-09-28T23:35:19.264Z,99445.47
2022-09-28T23:37:25.129Z,99452.75
2022-09-28T23:39:28.356Z,99457.97
2022-09-28T23:41:29.961Z,99455.50
2022-09-28T23:43:31.609Z,99457.31
2022-09-28T23:45:33.577Z,99456.47
2022-09-28T23:47:35.174Z,99456.84
2022-09-28T23:49:36.599Z,99449.25
2022-09-28T23:51:38.395Z,99451.38
2022-09-28T23:53:41.337Z,99457.03
2022-09-28T23:55:43.523Z,99453.25
2022-09-28T23:57:46.226Z,99452.00
2022-09-28T23:59:47.728Z,99450.41
